Time;durP1;ratioP1;P1;durP2;ratioP2;P2;SDS_P1;SDS_P2;PMS_P1;PMS_P2;Temp;Humidity;BMP_temperature;BMP_pressure;BME280_temperature;BME280_humidity;BME280_pressure;Samples;Min_cycle;Max_cycle;Signal;HPM_P1;HPM_P2
2022/03/03 00:00:04;;;;;;;14.07;8.00;;;;;;;6.23;39.71;102011.94;4956382;28;115713;-85
2022/03/03 00:02:38;;;;;;;13.38;7.57;;;;;;;6.23;39.56;102007.56;4975135;28;124817;-85
2022/03/03 00:05:06;;;;;;;14.82;8.02;;;;;;;6.21;39.70;102004.06;4942777;28;121744;-85
2022/03/03 00:07:34;;;;;;;15.77;7.70;;;;;;;6.21;39.57;102008.44;4958577;28;113214;-85
2022/03/03 00:10:02;;;;;;;16.80;8.43;;;;;;;6.21;39.70;102013.72;4974077;28;113160;-85
2022/03/03 00:12:29;;;;;;;15.27;7.57;;;;;;;6.19;39.59;102010.22;4957287;28;123904;-86
2022/03/03 00:14:56;;;;;;;15.00;7.90;;;;;;;6.19;39.64;102010.22;4957668;28;124115;-85
2022/03/03 00:17:24;;;;;;;17.02;8.70;;;;;;;6.16;39.93;102010.25;4974283;28;114080;-86
2022/03/03 00:19:51;;;;;;;13.50;8.15;;;;;;;6.13;39.53;102008.50;4959708;28;113012;-83
2022/03/03 00:22:19;;;;;;;17.15;7.45;;;;;;;6.12;39.62;102003.25;4979437;28;124679;-83
2022/03/03 00:24:46;;;;;;;15.48;8.25;;;;;;;6.10;39.70;102005.03;4962890;28;123165;-84
2022/03/03 00:27:13;;;;;;;15.30;8.15;;;;;;;6.10;39.89;101999.78;4963798;28;115481;-83
2022/03/03 00:29:43;;;;;;;14.25;8.25;;;;;;;6.06;39.89;101998.06;4974043;28;114955;-85
2022/03/03 00:32:10;;;;;;;16.38;8.70;;;;;;;6.03;39.68;101994.56;4980507;28;123436;-83
2022/03/03 00:34:37;;;;;;;15.48;7.85;;;;;;;6.01;39.61;101991.06;4971535;28;123904;-86
2022/03/03 00:37:05;;;;;;;18.08;8.43;;;;;;;5.98;39.97;101995.47;4956872;28;114874;-87
2022/03/03 00:39:32;;;;;;;13.50;7.50;;;;;;;5.96;40.04;101992.84;4956506;28;114348;-86
2022/03/03 00:41:59;;;;;;;18.45;8.52;;;;;;;5.93;40.12;101987.56;4940408;28;124089;-86
2022/03/03 00:44:26;;;;;;;13.38;7.63;;;;;;;5.91;39.75;101986.72;4956151;28;124093;-85
2022/03/03 00:46:54;;;;;;;16.95;8.07;;;;;;;5.90;39.83;101985.00;4955747;28;113302;-86
2022/03/03 00:49:21;;;;;;;15.70;7.93;;;;;;;5.88;40.20;101984.13;4955974;28;113975;-86
2022/03/03 00:51:48;;;;;;;16.08;7.90;;;;;;;5.83;39.84;101983.28;4949861;28;123457;-85
2022/03/03 00:54:16;;;;;;;16.20;8.65;;;;;;;5.82;40.03;101989.41;4958852;28;123612;-86
2022/03/03 00:56:44;;;;;;;15.48;8.60;;;;;;;5.78;39.99;101972.81;4956476;28;112830;-87
2022/03/03 00:59:11;;;;;;;15.07;7.90;;;;;;;5.78;39.96;101971.91;4955667;28;112957;-87
2022/03/03 01:01:38;;;;;;;13.65;8.25;;;;;;;5.77;40.08;101972.81;4937453;28;122361;-87
2022/03/03 01:04:06;;;;;;;16.83;8.90;;;;;;;5.74;40.24;101967.56;4938637;28;123020;-86
2022/03/03 01:06:33;;;;;;;18.17;8.18;;;;;;;5.72;40.19;101971.97;4956888;28;112391;-87
2022/03/03 01:09:01;;;;;;;14.20;7.93;;;;;;;5.69;40.13;101969.34;4957021;28;113989;-87
2022/03/03 01:11:28;;;;;;;15.38;8.40;;;;;;;5.66;40.21;101971.13;4954713;28;123314;-87
2022/03/03 01:13:55;;;;;;;18.85;9.13;;;;;;;5.65;39.98;101982.53;4938714;28;124137;-87
2022/03/03 01:16:23;;;;;;;16.90;8.43;;;;;;;5.62;40.38;101966.78;4954784;28;113077;-85
2022/03/03 01:18:50;;;;;;;14.85;8.02;;;;;;;5.58;40.19;101970.31;4970420;28;113907;-87
2022/03/03 01:21:17;;;;;;;16.63;8.13;;;;;;;5.55;40.08;101965.06;4954319;28;122853;-87
2022/03/03 01:23:44;;;;;;;18.02;9.60;;;;;;;5.51;40.35;101968.59;4937650;28;126021;-88
2022/03/03 01:26:11;;;;;;;17.00;8.63;;;;;;;5.47;40.17;101961.63;4953752;28;114615;-87
2022/03/03 01:28:39;;;;;;;12.90;7.65;;;;;;;5.42;40.34;101963.38;4937922;28;116223;-87
2022/03/03 01:31:06;;;;;;;17.02;8.63;;;;;;;5.37;40.27;101959.91;4954013;28;125409;-89
2022/03/03 01:33:34;;;;;;;14.80;8.40;;;;;;;5.32;40.35;101959.09;4938825;28;122387;-88
2022/03/03 01:36:03;;;;;;;16.83;7.93;;;;;;;5.27;40.61;101959.09;4956214;28;113426;-87
2022/03/03 01:38:30;;;;;;;16.55;8.57;;;;;;;5.23;40.45;101955.59;4960341;28;113913;-88
2022/03/03 01:40:57;;;;;;;16.58;8.82;;;;;;;5.18;40.79;101949.53;4966616;28;123203;-86
2022/03/03 01:43:24;;;;;;;17.17;8.95;;;;;;;5.12;40.74;101949.53;4967984;28;122198;-86
2022/03/03 01:45:51;;;;;;;15.65;7.85;;;;;;;5.06;40.60;101949.56;4954814;28;112178;-86
2022/03/03 01:48:18;;;;;;;15.32;8.15;;;;;;;5.00;40.76;101939.09;4967444;28;112337;-87
2022/03/03 01:50:46;;;;;;;16.48;8.48;;;;;;;4.96;40.64;101945.25;4962979;28;126446;-85
2022/03/03 01:53:13;;;;;;;17.77;9.00;;;;;;;4.90;41.00;101947.88;4962479;28;123882;-87
2022/03/03 01:55:40;;;;;;;17.45;9.23;;;;;;;4.86;41.15;101945.28;4959682;28;112592;-85
2022/03/03 01:58:07;;;;;;;16.98;8.07;;;;;;;4.82;41.02;101951.41;4952855;28;112224;-87
2022/03/03 02:00:34;;;;;;;16.40;8.20;;;;;;;4.79;41.17;101940.06;4955209;28;122922;-87
2022/03/03 02:03:02;;;;;;;16.40;8.80;;;;;;;4.76;41.17;101940.91;4956543;28;122055;-87
2022/03/03 02:05:30;;;;;;;15.98;8.52;;;;;;;4.76;41.14;101935.66;4970865;28;113059;-86
2022/03/03 02:07:58;;;;;;;15.55;8.73;;;;;;;4.75;41.21;101939.19;5008683;28;113972;-86
2022/03/03 02:10:25;;;;;;;16.20;8.40;;;;;;;4.75;41.26;101936.56;4978737;28;122880;-87
2022/03/03 02:12:52;;;;;;;19.38;9.35;;;;;;;4.74;41.43;101932.19;4983603;28;124171;-87
2022/03/03 02:15:21;;;;;;;16.42;8.32;;;;;;;4.74;41.72;101929.56;4959783;28;114459;-87
2022/03/03 02:17:48;;;;;;;17.23;9.00;;;;;;;4.73;41.41;101938.31;4976410;28;114563;-87
2022/03/03 02:20:27;;;;;;;18.10;8.93;;;;;;;4.73;41.66;101930.44;4963164;28;123518;-86
2022/03/03 02:22:56;;;;;;;17.70;8.80;;;;;;;4.74;41.24;101929.56;4962647;28;122214;-87
2022/03/03 02:25:25;;;;;;;18.00;9.70;;;;;;;4.74;41.41;101929.56;4976386;28;113467;-87
2022/03/03 02:27:53;;;;;;;20.38;8.10;;;;;;;4.75;41.54;101933.94;4978275;28;112364;-86
2022/03/03 02:30:21;;;;;;;16.30;8.95;;;;;;;4.75;41.39;101918.19;4982631;28;123412;-84
2022/03/03 02:32:48;;;;;;;16.02;8.18;;;;;;;4.74;41.28;101924.31;5001580;28;123420;-84
2022/03/03 02:35:15;;;;;;;16.48;8.68;;;;;;;4.72;41.60;101923.44;5018761;28;114919;-83
2022/03/03 02:37:45;;;;;;;16.98;8.80;;;;;;;4.72;41.44;101928.69;5001229;28;113439;-84
2022/03/03 02:40:20;;;;;;;15.90;8.15;;;;;;;4.71;41.61;101921.72;5000283;28;125370;-82
2022/03/03 02:42:49;;;;;;;16.10;8.17;;;;;;;4.71;41.68;101921.72;4997901;28;122541;-85
2022/03/03 02:45:17;;;;;;;16.48;7.90;;;;;;;4.70;41.34;101903.34;4970781;28;112422;-85
2022/03/03 02:47:45;;;;;;;15.75;8.45;;;;;;;4.70;41.86;101898.09;4993890;28;113813;-86
2022/03/03 02:50:14;;;;;;;16.40;8.48;;;;;;;4.67;41.73;101899.84;4998002;28;123810;-84
2022/03/03 02:52:42;;;;;;;16.85;8.40;;;;;;;4.66;41.64;101902.47;4998183;28;124843;-84
2022/03/03 02:55:10;;;;;;;16.38;8.13;;;;;;;4.64;41.71;101904.25;4982917;28;114453;-85
2022/03/03 02:57:55;;;;;;;17.02;8.50;;;;;;;4.61;41.51;101904.22;4948277;28;112727;-85
2022/03/03 03:00:28;;;;;;;17.33;8.82;;;;;;;4.59;41.87;101900.75;4956670;28;122523;-86
2022/03/03 03:02:55;;;;;;;17.20;8.63;;;;;;;4.59;41.92;101895.50;4973539;28;123402;-85
2022/03/03 03:05:23;;;;;;;17.38;8.73;;;;;;;4.56;41.87;101900.75;4940403;28;115221;-85
2022/03/03 03:07:51;;;;;;;15.48;8.77;;;;;;;4.56;41.99;101900.75;4972340;28;114122;-86
2022/03/03 03:10:18;;;;;;;16.10;9.27;;;;;;;4.54;41.88;101902.50;4955156;28;123327;-86
2022/03/03 03:12:46;;;;;;;19.65;9.00;;;;;;;4.53;41.80;101901.63;4971568;28;123834;-85
2022/03/03 03:15:13;;;;;;;16.83;9.20;;;;;;;4.54;41.89;101897.25;4956128;28;113150;-85
2022/03/03 03:17:40;;;;;;;16.98;8.50;;;;;;;4.51;42.21;101892.03;4972124;28;112905;-86
2022/03/03 03:20:08;;;;;;;15.68;8.40;;;;;;;4.51;41.90;101892.03;4971474;28;124565;-86
2022/03/03 03:22:36;;;;;;;19.92;9.68;;;;;;;4.48;41.93;101888.56;4939533;28;123651;-84
2022/03/03 03:25:07;;;;;;;16.52;8.93;;;;;;;4.46;42.07;101890.31;4940055;28;112394;-85
2022/03/03 03:27:37;;;;;;;17.95;8.80;;;;;;;4.45;42.02;101885.91;4942678;28;113130;-84
2022/03/03 03:30:06;;;;;;;19.88;9.35;;;;;;;4.45;42.12;101883.31;4948424;28;123409;-83
2022/03/03 03:32:33;;;;;;;16.55;9.00;;;;;;;4.42;42.26;101883.28;4978876;28;122969;-82
2022/03/03 03:35:01;;;;;;;16.95;8.77;;;;;;;4.41;42.17;101881.56;4975469;28;113985;-84
2022/03/03 03:37:29;;;;;;;18.17;9.15;;;;;;;4.41;42.12;101881.56;4981409;28;112580;-85
2022/03/03 03:39:56;;;;;;;19.45;9.43;;;;;;;4.40;42.25;101874.56;4955973;28;123375;-85
2022/03/03 03:42:24;;;;;;;16.67;8.18;;;;;;;4.39;42.36;101878.09;4956193;28;123935;-85
2022/03/03 03:44:51;;;;;;;17.33;8.55;;;;;;;4.37;42.49;101869.34;4956469;28;113957;-85
2022/03/03 03:47:18;;;;;;;16.42;8.35;;;;;;;4.36;42.33;101866.72;4973386;28;113070;-84
2022/03/03 03:49:45;;;;;;;17.20;9.07;;;;;;;4.35;42.33;101873.72;4971332;28;123916;-85
2022/03/03 03:52:12;;;;;;;16.48;8.57;;;;;;;4.34;42.33;101864.09;4971701;28;123462;-85
2022/03/03 03:54:40;;;;;;;15.75;8.80;;;;;;;4.33;42.47;101862.34;4972770;28;114542;-86
2022/03/03 03:57:07;;;;;;;17.60;8.88;;;;;;;4.32;42.48;101863.22;4972155;28;115140;-85
2022/03/03 03:59:35;;;;;;;17.27;8.90;;;;;;;4.32;42.38;101871.09;4955040;28;123699;-86
2022/03/03 04:02:02;;;;;;;17.55;9.43;;;;;;;4.29;42.28;101876.34;4937521;28;125493;-86
2022/03/03 04:04:29;;;;;;;19.95;9.75;;;;;;;4.27;42.53;101883.34;4971622;28;113665;-86
2022/03/03 04:06:57;;;;;;;15.80;8.30;;;;;;;4.25;42.69;101869.38;4938467;28;113576;-85
2022/03/03 04:09:24;;;;;;;20.08;8.93;;;;;;;4.23;42.30;101865.88;4938030;28;123684;-85
2022/03/03 04:11:51;;;;;;;19.55;9.52;;;;;;;4.21;42.28;101867.63;4938559;28;123047;-85
2022/03/03 04:14:18;;;;;;;17.27;8.77;;;;;;;4.21;42.57;101862.38;4955224;28;113952;-86
2022/03/03 04:16:45;;;;;;;19.10;9.20;;;;;;;4.22;42.76;101869.34;4939181;28;113582;-85
2022/03/03 04:19:12;;;;;;;18.25;9.40;;;;;;;4.19;42.65;101858.91;4954379;28;123737;-86
2022/03/03 04:21:39;;;;;;;18.38;8.93;;;;;;;4.18;42.43;101859.75;4953921;28;124494;-85
2022/03/03 04:24:07;;;;;;;16.90;8.55;;;;;;;4.15;42.70;101857.16;4936592;28;113842;-85
2022/03/03 04:26:34;;;;;;;17.83;8.52;;;;;;;4.13;42.80;101864.16;4970863;28;113924;-86
2022/03/03 04:29:01;;;;;;;17.60;9.15;;;;;;;4.10;42.67;101859.78;4939443;28;123140;-85
2022/03/03 04:31:29;;;;;;;19.13;9.15;;;;;;;4.06;42.79;101853.66;4970135;28;123607;-85
2022/03/03 04:33:56;;;;;;;18.05;8.82;;;;;;;4.05;42.85;101851.94;4955481;28;113786;-85
2022/03/03 04:36:24;;;;;;;17.60;8.98;;;;;;;4.03;42.83;101848.44;4939206;28;113406;-86
2022/03/03 04:38:51;;;;;;;17.42;8.85;;;;;;;4.01;42.69;101839.72;4937993;28;123817;-86
2022/03/03 04:41:19;;;;;;;18.15;8.68;;;;;;;3.99;42.76;101844.06;4969111;28;123544;-88
2022/03/03 04:43:48;;;;;;;17.23;9.10;;;;;;;3.97;42.99;101843.19;4953597;28;114590;-85
2022/03/03 04:46:16;;;;;;;17.90;8.80;;;;;;;3.94;43.18;101837.97;4938134;28;114563;-85
2022/03/03 04:48:43;;;;;;;18.38;8.65;;;;;;;3.92;42.71;101839.72;4953919;28;123171;-85
2022/03/03 04:51:11;;;;;;;16.85;9.05;;;;;;;3.90;42.98;101844.09;4936628;28;122813;-85
2022/03/03 04:53:38;;;;;;;18.23;9.32;;;;;;;3.88;43.32;101845.81;4937319;28;113837;-85
2022/03/03 04:56:05;;;;;;;16.15;8.35;;;;;;;3.86;43.00;101844.94;4954178;28;113192;-85
2022/03/03 04:58:33;;;;;;;19.58;9.50;;;;;;;3.83;42.91;101835.34;4937949;28;124313;-86
2022/03/03 05:01:00;;;;;;;18.40;9.30;;;;;;;3.80;42.90;101839.72;4969998;28;122696;-85
2022/03/03 05:03:27;;;;;;;16.80;8.98;;;;;;;3.77;42.89;101844.97;4970430;28;113199;-85
2022/03/03 05:05:54;;;;;;;18.92;9.35;;;;;;;3.75;43.15;101846.72;4937914;28;112735;-86
2022/03/03 05:08:22;;;;;;;17.73;8.60;;;;;;;3.72;43.17;101846.72;4937512;28;122894;-86
2022/03/03 05:10:49;;;;;;;14.82;8.40;;;;;;;3.70;43.32;101844.97;4970374;28;123792;-86
2022/03/03 05:13:16;;;;;;;17.98;9.30;;;;;;;3.68;43.29;101843.22;4955544;28;113644;-85
2022/03/03 05:15:43;;;;;;;19.63;9.35;;;;;;;3.66;43.38;101843.22;4955163;28;114302;-86
2022/03/03 05:18:13;;;;;;;16.98;8.82;;;;;;;3.67;43.44;101842.38;4970776;28;124652;-86
2022/03/03 05:20:41;;;;;;;18.58;9.38;;;;;;;3.67;43.41;101834.50;4937830;28;123468;-85
2022/03/03 05:23:11;;;;;;;16.95;8.75;;;;;;;3.69;43.70;101843.25;4970640;28;113119;-85
2022/03/03 05:25:38;;;;;;;20.05;9.05;;;;;;;3.69;43.43;101843.25;4938413;28;113610;-85
2022/03/03 05:28:05;;;;;;;15.68;8.30;;;;;;;3.68;43.41;101846.72;4972299;28;125378;-85
2022/03/03 05:30:32;;;;;;;20.67;9.25;;;;;;;3.68;43.39;101835.38;4940814;28;123250;-84
2022/03/03 05:33:02;;;;;;;21.58;9.40;;;;;;;3.66;43.41;101839.75;4954856;28;114982;-86
2022/03/03 05:35:29;;;;;;;17.88;9.20;;;;;;;3.65;43.50;101836.22;4972990;28;115117;-85
2022/03/03 05:37:56;;;;;;;19.17;9.05;;;;;;;3.65;43.56;101835.38;4973659;28;122078;-85
2022/03/03 05:40:23;;;;;;;18.75;9.18;;;;;;;3.64;43.62;101837.13;4954872;28;122761;-85
2022/03/03 05:42:52;;;;;;;21.45;9.05;;;;;;;3.63;43.66;101837.97;4956301;28;114098;-86
2022/03/03 05:45:19;;;;;;;17.85;8.80;;;;;;;3.65;43.55;101838.84;4955392;28;114111;-85
2022/03/03 05:47:46;;;;;;;19.23;9.60;;;;;;;3.64;43.60;101839.75;4969359;28;123061;-85
2022/03/03 05:50:15;;;;;;;17.40;9.02;;;;;;;3.64;43.54;101834.50;4969259;28;123711;-85
2022/03/03 05:52:45;;;;;;;21.67;9.00;;;;;;;3.63;43.71;101843.22;4969731;28;114480;-84
2022/03/03 05:55:12;;;;;;;16.85;8.98;;;;;;;3.63;43.38;101837.97;4954050;28;114494;-86
2022/03/03 05:57:46;;;;;;;18.98;9.57;;;;;;;3.63;43.64;101843.22;4952338;28;123005;-86
2022/03/03 06:00:16;;;;;;;20.42;8.63;;;;;;;3.62;43.59;101844.09;4936643;28;122878;-85
2022/03/03 06:02:55;;;;;;;20.05;9.10;;;;;;;3.60;43.72;101843.25;4953570;28;114820;-87
2022/03/03 06:05:25;;;;;;;17.88;8.98;;;;;;;3.55;43.53;101842.34;4938084;28;113693;-86
2022/03/03 06:08:04;;;;;;;20.17;8.98;;;;;;;3.52;43.53;101842.34;4969930;28;123922;-86
2022/03/03 06:10:33;;;;;;;18.63;9.50;;;;;;;3.48;43.60;101840.59;4953067;28;122703;-87
2022/03/03 06:13:19;;;;;;;18.80;9.13;;;;;;;3.46;43.91;101844.97;4953767;28;114088;-86
2022/03/03 06:15:47;;;;;;;19.98;9.50;;;;;;;3.43;43.69;101839.75;4953855;28;113406;-87
2022/03/03 06:18:15;;;;;;;18.50;8.90;;;;;;;3.41;43.77;101836.22;4967616;28;123578;-85
2022/03/03 06:20:44;;;;;;;19.85;9.50;;;;;;;3.40;43.62;101839.75;4967503;28;123832;-85
2022/03/03 06:23:13;;;;;;;19.55;9.85;;;;;;;3.39;43.54;101837.97;4968480;28;114165;-85
2022/03/03 06:25:41;;;;;;;20.80;9.23;;;;;;;3.38;43.77;101837.13;4953881;28;114546;-85
2022/03/03 06:28:09;;;;;;;19.40;9.20;;;;;;;3.38;43.89;101846.72;4969513;28;122737;-84
2022/03/03 06:30:36;;;;;;;20.58;10.43;;;;;;;3.36;43.90;101833.63;4953820;28;122559;-86
2022/03/03 06:33:04;;;;;;;19.40;9.48;;;;;;;3.36;43.96;101838.00;4970501;28;113893;-84
2022/03/03 06:35:37;;;;;;;19.83;9.35;;;;;;;3.33;43.96;101837.97;4937284;28;113629;-84
2022/03/03 06:38:06;;;;;;;19.42;9.00;;;;;;;3.33;44.19;101848.44;4936609;28;122769;-84
2022/03/03 06:40:34;;;;;;;17.40;9.40;;;;;;;3.31;44.31;101846.72;4951788;28;123198;-84
2022/03/03 06:43:02;;;;;;;21.25;9.82;;;;;;;3.31;44.21;101846.72;4953154;28;113906;-85
2022/03/03 06:45:31;;;;;;;20.50;10.07;;;;;;;3.34;44.33;101844.97;4969738;28;113356;-85
2022/03/03 06:48:01;;;;;;;17.30;8.88;;;;;;;3.39;44.22;101853.69;4954550;28;122437;-84
2022/03/03 06:50:28;;;;;;;17.88;8.85;;;;;;;3.43;44.32;101850.22;4938263;28;123345;-85
2022/03/03 06:52:56;;;;;;;17.42;9.30;;;;;;;3.45;44.30;101851.09;4958210;28;113383;-85
2022/03/03 06:55:25;;;;;;;17.40;8.98;;;;;;;3.49;44.43;101850.22;4956038;28;113561;-84
2022/03/03 06:57:55;;;;;;;18.83;9.43;;;;;;;3.52;44.38;101852.81;4955953;28;123484;-83
2022/03/03 07:00:26;;;;;;;17.90;8.48;;;;;;;3.55;44.44;101860.69;4939066;28;123444;-83
2022/03/03 07:02:53;;;;;;;21.35;10.00;;;;;;;3.62;44.55;101857.22;4972710;28;113643;-84
2022/03/03 07:05:21;;;;;;;17.02;9.70;;;;;;;3.70;44.58;101860.69;4956535;28;113448;-84
2022/03/03 07:07:52;;;;;;;21.80;9.38;;;;;;;3.78;44.92;101858.06;4956156;28;124524;-84
2022/03/03 07:10:23;;;;;;;20.27;9.27;;;;;;;3.89;44.94;101860.69;4970742;28;123655;-84
2022/03/03 07:12:56;;;;;;;22.90;9.25;;;;;;;4.00;44.94;101858.91;4955952;28;114679;-83
2022/03/03 07:15:25;;;;;;;18.23;9.30;;;;;;;4.12;45.09;101857.16;4972361;28;114720;-84
2022/03/03 07:18:00;;;;;;;18.40;9.18;;;;;;;4.23;44.86;101856.25;4955509;28;125642;-84
2022/03/03 07:20:35;;;;;;;16.23;8.77;;;;;;;4.37;44.78;101857.97;4971080;28;124751;-84
2022/03/03 07:23:17;;;;;;;16.93;8.97;;;;;;;4.51;44.90;101860.56;4938941;28;112461;-85
2022/03/03 07:25:48;;;;;;;18.67;9.02;;;;;;;4.62;44.76;101858.78;4971121;28;113828;-82
2022/03/03 07:28:18;;;;;;;20.30;9.35;;;;;;;4.72;44.80;101865.72;4938449;28;123428;-82
2022/03/03 07:30:49;;;;;;;16.70;9.35;;;;;;;4.79;44.59;101862.19;4970356;28;123453;-83
2022/03/03 07:33:23;;;;;;;20.40;9.75;;;;;;;4.84;44.71;101860.41;4955024;28;114273;-83
2022/03/03 07:35:56;;;;;;;17.92;9.27;;;;;;;4.92;44.89;101862.13;4937403;28;113428;-83
2022/03/03 07:38:29;;;;;;;22.55;9.70;;;;;;;4.98;44.52;101856.84;4969442;28;123829;-82
2022/03/03 07:40:57;;;;;;;21.17;9.50;;;;;;;5.03;44.49;101860.31;4953098;28;123404;-83
2022/03/03 07:43:24;;;;;;;20.77;9.52;;;;;;;5.05;44.57;101862.06;4938669;28;113751;-83
2022/03/03 07:45:51;;;;;;;20.73;9.98;;;;;;;5.10;44.37;101862.00;4970851;28;115328;-83
2022/03/03 07:48:24;;;;;;;17.85;9.18;;;;;;;5.13;44.65;101869.88;4970418;28;124536;-83
2022/03/03 07:50:52;;;;;;;20.10;9.75;;;;;;;5.17;44.25;101868.97;4953492;28;124821;-82
2022/03/03 07:53:19;;;;;;;21.70;10.40;;;;;;;5.19;44.53;101867.22;4954076;28;114557;-83
2022/03/03 07:55:49;;;;;;;19.95;10.38;;;;;;;5.23;44.58;101863.69;4970546;28;112957;-83
2022/03/03 07:58:18;;;;;;;20.00;9.80;;;;;;;5.28;44.87;101865.44;4954125;28;124512;-83
2022/03/03 08:00:51;;;;;;;19.65;10.02;;;;;;;5.33;44.85;101874.13;4952494;28;122985;-83
2022/03/03 08:03:20;;;;;;;20.30;9.45;;;;;;;5.39;44.71;101879.38;4938174;28;114606;-82
2022/03/03 08:05:51;;;;;;;16.42;9.60;;;;;;;5.45;44.79;101879.31;4971278;28;114321;-83
2022/03/03 08:08:25;;;;;;;21.52;10.20;;;;;;;5.51;44.77;101879.25;4954354;28;124217;-82
2022/03/03 08:11:02;;;;;;;20.77;9.95;;;;;;;5.57;44.51;101879.19;4937071;28;124320;-83
2022/03/03 08:13:30;;;;;;;19.90;10.40;;;;;;;5.63;44.95;101876.56;4953900;28;115582;-83
2022/03/03 08:15:58;;;;;;;18.80;9.73;;;;;;;5.72;44.74;101877.34;4954233;28;114535;-83
2022/03/03 08:18:27;;;;;;;21.75;9.80;;;;;;;5.80;44.97;101875.50;4970375;28;125057;-83
2022/03/03 08:20:56;;;;;;;19.58;9.48;;;;;;;5.87;44.84;101881.59;4955281;28;124478;-83
2022/03/03 08:23:26;;;;;;;20.40;10.15;;;;;;;5.95;44.94;101880.69;4963124;28;113981;-82
2022/03/03 08:25:55;;;;;;;20.45;9.93;;;;;;;6.03;44.90;101878.84;4971663;28;113992;-83
2022/03/03 08:28:24;;;;;;;20.88;9.32;;;;;;;6.14;45.04;101875.25;4969659;28;123519;-83
2022/03/03 08:30:58;;;;;;;17.83;9.23;;;;;;;6.24;45.03;101882.16;4969001;28;123224;-84
2022/03/03 08:33:33;;;;;;;19.70;9.73;;;;;;;6.33;44.85;101876.81;4953906;28;113877;-83
2022/03/03 08:36:02;;;;;;;18.05;9.73;;;;;;;6.43;44.93;101873.19;4952993;28;113398;-84
2022/03/03 08:38:37;;;;;;;16.95;9.25;;;;;;;6.55;44.53;101892.34;4970989;28;123555;-83
2022/03/03 08:41:05;;;;;;;17.95;9.43;;;;;;;6.65;44.83;101878.22;4952340;28;123751;-83
2022/03/03 08:43:33;;;;;;;18.98;9.25;;;;;;;6.73;44.88;101881.59;4969565;28;113740;-83
2022/03/03 08:46:03;;;;;;;18.50;8.45;;;;;;;6.86;44.85;101881.47;4955359;28;114067;-83
2022/03/03 08:48:32;;;;;;;15.40;8.82;;;;;;;6.97;44.75;101879.56;4953964;28;123574;-83
2022/03/03 08:51:00;;;;;;;18.75;9.07;;;;;;;7.09;44.53;101873.25;4968820;28;123976;-83
2022/03/03 08:53:28;;;;;;;19.02;8.90;;;;;;;7.20;44.49;101872.19;4969533;28;114598;-83
2022/03/03 08:55:58;;;;;;;17.90;9.13;;;;;;;7.35;44.71;101875.50;4953545;28;113184;-84
2022/03/03 08:58:26;;;;;;;19.13;9.18;;;;;;;7.49;44.41;101878.78;4937154;28;123612;-83
2022/03/03 09:00:53;;;;;;;18.63;9.13;;;;;;;7.63;44.65;101875.94;4968461;28;123043;-83
2022/03/03 09:03:22;;;;;;;20.77;8.80;;;;;;;7.76;44.75;101871.31;4953757;28;113936;-84
2022/03/03 09:05:50;;;;;;;18.02;8.45;;;;;;;7.92;44.31;101878.09;4953144;28;112664;-84
2022/03/03 09:08:17;;;;;;;15.40;8.30;;;;;;;8.06;44.46;101869.06;4968821;28;123178;-83
2022/03/03 09:10:45;;;;;;;13.23;8.07;;;;;;;8.21;44.04;101871.41;4952320;28;123496;-84
2022/03/03 09:13:13;;;;;;;14.45;8.23;;;;;;;8.36;43.70;101868.50;4953989;28;114178;-84
2022/03/03 09:15:40;;;;;;;16.65;8.57;;;;;;;8.52;44.15;101857.66;4969734;28;114124;-84
2022/03/03 09:18:08;;;;;;;15.43;9.20;;;;;;;8.68;43.71;101864.38;4953350;28;124572;-84
2022/03/03 09:20:36;;;;;;;17.50;8.27;;;;;;;8.84;43.63;101869.34;4952379;28;123369;-84
2022/03/03 09:23:03;;;;;;;19.23;8.27;;;;;;;8.98;43.38;101856.69;4953463;28;114166;-84
2022/03/03 09:25:30;;;;;;;20.90;8.52;;;;;;;9.11;43.43;101863.44;4954172;28;114319;-84
2022/03/03 09:28:00;;;;;;;13.32;7.85;;;;;;;9.25;43.22;101864.88;4938922;28;123722;-83
2022/03/03 09:30:28;;;;;;;13.07;7.72;;;;;;;9.37;42.97;101864.63;4972138;28;123860;-84
2022/03/03 09:32:55;;;;;;;13.30;7.50;;;;;;;9.52;42.37;101861.59;4938014;28;114080;-84
2022/03/03 09:35:23;;;;;;;13.60;7.88;;;;;;;9.66;42.76;101865.69;4954480;28;111995;-84
2022/03/03 09:37:51;;;;;;;15.75;8.18;;;;;;;9.78;42.57;101859.25;4954065;28;124873;-84
2022/03/03 09:40:19;;;;;;;14.93;8.13;;;;;;;9.93;42.47;101858.84;4968373;28;122599;-84
2022/03/03 09:43:01;;;;;;;16.50;7.85;;;;;;;10.08;42.04;101852.28;4936281;28;114520;-84
2022/03/03 09:45:29;;;;;;;13.77;7.72;;;;;;;10.21;41.79;101848.38;4968515;28;115197;-84
2022/03/03 09:47:57;;;;;;;15.43;8.05;;;;;;;10.33;42.11;101845.41;4952769;28;124471;-84
2022/03/03 09:50:26;;;;;;;13.35;7.43;;;;;;;10.46;41.83;101845.94;4967027;28;123884;-84
2022/03/03 09:52:54;;;;;;;14.45;7.93;;;;;;;10.58;41.51;101836.75;4969114;28;115183;-84
2022/03/03 09:55:22;;;;;;;15.43;7.97;;;;;;;10.68;41.16;101832.94;4952697;28;112768;-84
2022/03/03 09:57:50;;;;;;;15.75;8.07;;;;;;;10.80;41.00;101830.84;4936147;28;123975;-84
2022/03/03 10:00:18;;;;;;;13.85;7.88;;;;;;;10.90;40.65;101827.00;4952146;28;123871;-84
2022/03/03 10:03:10;;;;;;;16.17;8.10;;;;;;;10.98;40.83;101825.00;4937036;28;113853;-84
2022/03/03 10:05:45;;;;;;;12.05;7.70;;;;;;;11.09;40.47;101828.19;4952520;28;113708;-83
2022/03/03 10:08:20;;;;;;;16.73;8.25;;;;;;;11.19;40.50;101827.84;4936346;28;123111;-84
2022/03/03 10:10:52;;;;;;;13.68;8.15;;;;;;;11.30;40.39;101821.31;4968046;28;123008;-83
2022/03/03 10:13:20;;;;;;;14.15;7.85;;;;;;;11.44;40.32;101828.81;4971023;28;114769;-84
2022/03/03 10:15:52;;;;;;;15.05;7.88;;;;;;;11.54;39.78;101831.16;4962223;28;113480;-83
2022/03/03 10:18:20;;;;;;;13.23;7.40;;;;;;;11.60;39.60;101831.84;4977246;28;122492;-82
2022/03/03 10:20:55;;;;;;;12.30;7.28;;;;;;;11.69;39.70;101834.16;4994350;28;124669;-81
2022/03/03 10:23:24;;;;;;;;;;;;;;;11.78;40.09;101838.28;4997559;28;116958;-82
2022/03/03 10:25:52;;;;;;;14.00;7.88;;;;;;;11.90;39.80;101830.88;4965182;28;111600;-82
2022/03/03 10:28:31;;;;;;;13.43;7.70;;;;;;;11.98;39.55;101829.69;4997816;28;124564;-83
2022/03/03 10:31:09;;;;;;;11.52;7.47;;;;;;;12.07;39.18;101834.69;4995716;28;124308;-83
2022/03/03 10:33:39;;;;;;;14.73;8.15;;;;;;;12.15;38.94;101837.06;4964080;28;116829;-84
2022/03/03 10:36:09;;;;;;;13.32;7.57;;;;;;;12.23;38.79;101828.81;4955429;28;115082;-84
2022/03/03 10:38:47;;;;;;;13.15;7.60;;;;;;;12.32;38.44;101832.91;4955136;28;123095;-84
2022/03/03 10:41:39;;;;;;;14.10;7.32;;;;;;;12.41;38.68;101827.25;4969884;28;123695;-84
2022/03/03 10:44:12;;;;;;;14.20;7.22;;;;;;;12.50;38.29;101829.56;4968468;28;114309;-82
2022/03/03 10:47:00;;;;;;;13.27;7.40;;;;;;;12.59;38.41;101828.38;4979226;28;113516;-84
2022/03/03 10:49:28;;;;;;;12.00;7.60;;;;;;;12.69;38.11;101820.91;4996448;28;124337;-83
2022/03/03 10:52:21;;;;;;;14.25;7.55;;;;;;;12.77;37.91;101818.81;4980566;28;124716;-83
2022/03/03 10:55:08;;;;;;;12.30;6.90;;;;;;;12.85;37.86;101819.41;4980302;28;115710;-84
2022/03/03 10:57:40;;;;;;;10.65;7.20;;;;;;;12.93;37.63;101816.44;4980981;28;113378;-82
2022/03/03 11:00:07;;;;;;;11.05;6.82;;;;;;;13.00;37.50;101821.47;4994474;28;122315;-84
2022/03/03 11:02:35;;;;;;;14.50;7.30;;;;;;;13.09;36.89;101820.25;4972215;28;122803;-84
2022/03/03 11:05:04;;;;;;;12.93;7.25;;;;;;;13.16;36.93;101816.38;4957060;28;114353;-84
2022/03/03 11:07:32;;;;;;;12.90;7.15;;;;;;;13.21;36.97;101814.41;4956507;28;114052;-84
2022/03/03 11:09:59;;;;;;;10.07;7.03;;;;;;;13.28;36.84;101815.03;4954152;28;124604;-84
2022/03/03 11:12:27;;;;;;;12.52;7.18;;;;;;;13.38;36.51;101812.91;4972351;28;124665;-84
2022/03/03 11:14:58;;;;;;;15.02;6.88;;;;;;;13.46;36.65;101807.25;4938981;28;113859;-84
2022/03/03 11:17:26;;;;;;;11.75;7.22;;;;;;;13.53;36.10;101800.75;4972750;28;113861;-84
2022/03/03 11:19:58;;;;;;;12.48;7.63;;;;;;;13.60;36.30;101805.75;4953845;28;123577;-84
2022/03/03 11:22:27;;;;;;;11.32;6.75;;;;;;;13.69;35.86;101799.16;4971745;28;123641;-84
2022/03/03 11:24:58;;;;;;;12.30;6.57;;;;;;;13.74;35.64;101797.16;4954554;28;114361;-84